createdAt,value
2019-01-24T00:00:00.040Z,8.20
2019-01-24T00:02:28.646Z,8.10
2019-01-24T00:04:57.248Z,8.20
2019-01-24T00:07:25.936Z,8.10
2019-01-24T00:09:54.516Z,8.20
2019-01-24T00:12:42.441Z,8.20
2019-01-24T00:15:11.054Z,8.10
2019-01-24T00:17:59.004Z,8.10
2019-01-24T00:20:46.914Z,8.10
2019-01-24T00:23:15.501Z,8.10
2019-01-24T00:26:03.399Z,8.20
2019-01-24T00:28:51.331Z,8.10
2019-01-24T00:31:19.959Z,8.10
2019-01-24T00:33:48.579Z,8.00
2019-01-24T00:36:17.216Z,8.10
2019-01-24T00:38:45.815Z,8.00
2019-01-24T00:41:33.737Z,8.00
2019-01-24T00:44:21.644Z,8.00
2019-01-24T00:47:09.564Z,7.90
2019-01-24T00:49:38.145Z,7.90
2019-01-24T00:52:26.084Z,7.90
2019-01-24T00:54:54.672Z,7.90
2019-01-24T00:57:23.489Z,7.90
2019-01-24T00:59:52.074Z,8.00
2019-01-24T01:02:20.725Z,8.00
2019-01-24T01:04:49.315Z,7.90
2019-01-24T01:07:37.228Z,7.90
2019-01-24T01:10:25.148Z,7.90
2019-01-24T01:13:13.319Z,7.90
2019-01-24T01:15:41.899Z,7.90
2019-01-24T01:18:10.715Z,7.80
2019-01-24T01:23:27.020Z,7.80
2019-01-24T01:25:55.596Z,7.80
2019-01-24T01:28:24.435Z,7.80
2019-01-24T01:30:53.001Z,7.80
2019-01-24T01:33:21.937Z,7.80
2019-01-24T01:36:10.049Z,7.90
2019-01-24T01:38:58.199Z,7.80
2019-01-24T01:41:46.123Z,7.80
2019-01-24T01:44:34.028Z,7.80
2019-01-24T01:47:22.181Z,7.70
2019-01-24T01:49:51.003Z,7.70
2019-01-24T01:52:19.575Z,7.80
2019-01-24T01:55:07.496Z,7.80
2019-01-24T01:57:36.079Z,7.80
2019-01-24T02:00:24.188Z,7.80
2019-01-24T02:03:12.111Z,7.70
2019-01-24T02:06:00.072Z,7.70
2019-01-24T02:08:28.652Z,7.70
2019-01-24T02:11:16.592Z,7.70
2019-01-24T02:13:45.207Z,7.70
2019-01-24T02:16:25.684Z,7.70
2019-01-24T02:19:06.218Z,7.70
2019-01-24T02:21:47.086Z,7.70
2019-01-24T02:24:15.669Z,7.70
2019-01-24T02:27:03.595Z,7.70
2019-01-24T02:29:51.512Z,7.70
2019-01-24T02:32:39.477Z,7.70
2019-01-24T02:35:08.779Z,7.70
2019-01-24T02:37:37.378Z,7.70
2019-01-24T02:40:25.321Z,7.70
2019-01-24T02:43:13.297Z,7.70
2019-01-24T02:46:01.225Z,7.70
2019-01-24T02:48:49.135Z,7.60
2019-01-24T02:51:37.062Z,7.60
2019-01-24T02:54:25.027Z,7.60
2019-01-24T02:57:13.023Z,7.60
2019-01-24T03:00:00.975Z,7.60
2019-01-24T03:02:29.587Z,7.60
2019-01-24T03:05:18.355Z,7.60
2019-01-24T03:07:46.976Z,7.60
2019-01-24T03:10:34.925Z,7.60
2019-01-24T03:13:22.869Z,7.60
2019-01-24T03:15:51.490Z,7.60
2019-01-24T03:18:39.387Z,7.60
2019-01-24T03:21:27.372Z,7.60
2019-01-24T03:24:15.550Z,7.50
2019-01-24T03:27:03.529Z,7.50
2019-01-24T03:29:51.489Z,7.60
2019-01-24T03:32:39.445Z,7.50
2019-01-24T03:35:27.361Z,7.50
2019-01-24T03:38:15.270Z,7.50
2019-01-24T03:40:43.868Z,7.50
2019-01-24T03:43:31.787Z,7.50
2019-01-24T03:46:19.699Z,7.60
2019-01-24T03:49:07.645Z,7.60
2019-01-24T03:51:55.569Z,7.60
2019-01-24T03:54:43.551Z,7.60
2019-01-24T03:57:31.526Z,7.50
2019-01-24T04:00:00.364Z,7.50
2019-01-24T04:02:48.353Z,7.50
2019-01-24T04:05:16.974Z,7.50
2019-01-24T04:07:45.575Z,7.60
2019-01-24T04:10:33.487Z,7.50
2019-01-24T04:13:02.052Z,7.60
2019-01-24T04:15:43.237Z,7.60
2019-01-24T04:18:23.932Z,7.60
2019-01-24T04:21:04.737Z,7.60
2019-01-24T04:23:33.629Z,7.60
2019-01-24T04:26:21.552Z,7.50
2019-01-24T04:29:09.470Z,7.50
2019-01-24T04:31:38.094Z,7.50
2019-01-24T04:34:25.997Z,7.50
2019-01-24T04:36:54.616Z,7.50
2019-01-24T04:39:42.783Z,7.50
2019-01-24T04:42:30.725Z,7.50
2019-01-24T04:45:18.900Z,7.50
2019-01-24T04:48:06.847Z,7.50
2019-01-24T04:50:54.781Z,7.50
2019-01-24T04:53:42.785Z,7.50
2019-01-24T04:56:30.699Z,7.50
2019-01-24T04:59:18.864Z,7.40
2019-01-24T05:01:47.465Z,7.40
2019-01-24T05:04:16.049Z,7.50
2019-01-24T05:07:03.989Z,7.50
2019-01-24T05:09:32.831Z,7.50
2019-01-24T05:12:20.770Z,7.50
2019-01-24T05:15:08.668Z,7.50
2019-01-24T05:17:37.265Z,7.50
2019-01-24T05:20:25.190Z,7.50
2019-01-24T05:23:13.475Z,7.50
2019-01-24T05:26:01.380Z,7.50
2019-01-24T05:31:25.357Z,7.50
2019-01-24T05:34:13.286Z,7.50
2019-01-24T05:37:03.292Z,7.50
2019-01-24T05:39:51.200Z,7.50
2019-01-24T05:42:39.433Z,7.60
2019-01-24T05:45:27.369Z,7.50
2019-01-24T05:48:15.524Z,7.50
2019-01-24T05:51:06.768Z,7.50
2019-01-24T05:54:09.573Z,7.50
2019-01-24T05:56:44.628Z,7.50
2019-01-24T05:59:32.825Z,7.40
2019-01-24T06:02:21.244Z,7.40
2019-01-24T06:05:09.673Z,7.50
2019-01-24T06:07:57.610Z,7.50
2019-01-24T06:10:46.074Z,7.40
2019-01-24T06:13:33.974Z,7.50
2019-01-24T06:16:15.382Z,7.50
2019-01-24T06:18:55.705Z,7.50
2019-01-24T06:21:36.220Z,7.50
2019-01-24T06:24:04.876Z,7.50
2019-01-24T06:26:53.064Z,7.50
2019-01-24T06:32:49.392Z,7.40
2019-01-24T06:35:37.345Z,7.40
2019-01-24T06:38:25.308Z,7.40
2019-01-24T06:41:13.509Z,7.40
2019-01-24T06:44:01.461Z,7.40
2019-01-24T06:46:37.405Z,7.40
2019-01-24T06:49:25.356Z,7.40
2019-01-24T06:51:53.967Z,7.40
2019-01-24T06:54:22.548Z,7.40
2019-01-24T06:57:10.969Z,7.40
2019-01-24T06:59:39.557Z,7.40
2019-01-24T07:02:27.524Z,7.40
2019-01-24T07:04:56.121Z,7.40
2019-01-24T07:07:25.016Z,7.30
2019-01-24T07:10:13.892Z,7.40
2019-01-24T07:12:42.589Z,7.40
2019-01-24T07:15:30.756Z,7.30
2019-01-24T07:18:12.105Z,7.30
2019-01-24T07:20:52.857Z,7.30
2019-01-24T07:23:33.670Z,7.30
2019-01-24T07:26:02.597Z,7.40
2019-01-24T07:28:31.459Z,7.30
2019-01-24T07:31:00.078Z,7.30
2019-01-24T07:33:28.677Z,7.30
2019-01-24T07:36:16.637Z,7.30
2019-01-24T07:38:45.243Z,7.30
2019-01-24T07:41:33.202Z,7.30
2019-01-24T07:44:01.786Z,7.30
2019-01-24T07:46:30.910Z,7.20
2019-01-24T07:49:19.107Z,7.30
2019-01-24T07:51:47.967Z,7.30
2019-01-24T07:54:35.896Z,7.30
2019-01-24T07:57:23.864Z,7.30
2019-01-24T08:00:13.296Z,7.30
2019-01-24T08:03:01.264Z,7.30
2019-01-24T08:05:49.494Z,7.30
2019-01-24T08:08:37.426Z,7.30
2019-01-24T08:11:25.338Z,7.30
2019-01-24T08:13:54.014Z,7.20
2019-01-24T08:16:22.622Z,7.30
2019-01-24T08:19:10.574Z,7.30
2019-01-24T08:21:39.160Z,7.30
2019-01-24T08:24:27.204Z,7.30
2019-01-24T08:27:15.133Z,7.30
2019-01-24T08:30:03.168Z,7.30
2019-01-24T08:32:51.109Z,7.30
2019-01-24T08:35:39.064Z,7.30
2019-01-24T08:38:26.989Z,7.20
2019-01-24T08:41:14.920Z,7.30
2019-01-24T08:44:03.184Z,7.20
2019-01-24T08:46:51.120Z,7.20
2019-01-24T08:49:39.328Z,7.20
2019-01-24T08:52:27.302Z,7.20
2019-01-24T08:55:16.456Z,7.10
2019-01-24T08:58:04.641Z,7.10
2019-01-24T09:00:52.552Z,7.00
2019-01-24T09:03:21.425Z,7.00
2019-01-24T09:06:09.345Z,7.00
2019-01-24T09:08:57.305Z,7.00
2019-01-24T09:11:45.197Z,7.00
2019-01-24T09:14:33.396Z,7.00
2019-01-24T09:17:13.900Z,6.90
2019-01-24T09:19:42.540Z,6.90
2019-01-24T09:22:11.128Z,7.00
2019-01-24T09:24:39.711Z,7.00
2019-01-24T09:27:08.341Z,6.90
2019-01-24T09:29:37.183Z,6.90
2019-01-24T09:32:25.394Z,6.90
2019-01-24T09:34:53.989Z,6.90
2019-01-24T09:37:41.909Z,7.00
2019-01-24T09:40:29.822Z,6.90
2019-01-24T09:43:17.785Z,7.00
2019-01-24T09:45:46.355Z,7.00
2019-01-24T09:48:14.973Z,7.00
2019-01-24T09:51:02.996Z,7.00
2019-01-24T09:53:31.872Z,7.00
2019-01-24T09:56:19.802Z,6.90
2019-01-24T09:59:07.964Z,7.00
2019-01-24T10:01:56.251Z,7.00
2019-01-24T10:04:44.197Z,7.00
2019-01-24T10:07:12.769Z,7.00
2019-01-24T10:10:00.988Z,7.00
2019-01-24T10:12:30.127Z,7.00
2019-01-24T10:15:18.168Z,7.00
2019-01-24T10:17:59.440Z,7.00
2019-01-24T10:20:28.499Z,7.00
2019-01-24T10:22:57.365Z,6.90
2019-01-24T10:25:28.111Z,6.90
2019-01-24T10:28:16.292Z,7.00
2019-01-24T10:31:04.225Z,7.00
2019-01-24T10:33:52.185Z,7.00
2019-01-24T10:36:20.848Z,7.00
2019-01-24T10:38:49.445Z,7.10
2019-01-24T10:41:37.429Z,7.10
2019-01-24T10:44:25.346Z,7.10
2019-01-24T10:47:13.282Z,7.10
2019-01-24T10:50:01.221Z,7.10
2019-01-24T10:52:29.853Z,7.10
2019-01-24T10:54:58.441Z,7.00
2019-01-24T10:57:27.021Z,7.10
2019-01-24T10:59:55.625Z,7.20
2019-01-24T11:02:43.780Z,7.30
2019-01-24T11:05:13.383Z,7.30
2019-01-24T11:07:42.224Z,7.30
2019-01-24T11:10:10.884Z,7.30
2019-01-24T11:12:59.083Z,7.40
2019-01-24T11:15:47.036Z,7.40
2019-01-24T11:18:15.633Z,7.40
2019-01-24T11:21:03.569Z,7.40
2019-01-24T11:23:51.512Z,7.40
2019-01-24T11:26:39.477Z,7.50
2019-01-24T11:29:08.121Z,7.50
2019-01-24T11:31:36.717Z,7.50
2019-01-24T11:34:05.298Z,7.50
2019-01-24T11:36:57.056Z,7.50
2019-01-24T11:39:23.609Z,7.50
2019-01-24T11:41:52.189Z,7.50
2019-01-24T11:44:40.130Z,7.50
2019-01-24T11:47:28.336Z,7.50
2019-01-24T11:49:56.935Z,7.50
2019-01-24T11:52:25.577Z,7.50
2019-01-24T11:55:14.005Z,7.50
2019-01-24T11:57:42.596Z,7.50
2019-01-24T12:00:34.335Z,7.50
2019-01-24T12:03:22.252Z,7.50
2019-01-24T12:06:10.473Z,7.50
2019-01-24T12:08:58.429Z,7.50
2019-01-24T12:11:27.537Z,7.50
2019-01-24T12:13:56.148Z,7.50
2019-01-24T12:16:24.749Z,7.50
2019-01-24T12:19:06.107Z,7.50
2019-01-24T12:21:34.706Z,7.50
2019-01-24T12:24:22.888Z,7.50
2019-01-24T12:26:51.516Z,7.50
2019-01-24T12:29:40.157Z,7.50
2019-01-24T12:32:08.727Z,7.40
2019-01-24T12:34:37.308Z,7.40
2019-01-24T12:37:11.321Z,7.40
2019-01-24T12:39:36.220Z,7.30
2019-01-24T12:42:05.085Z,7.40
2019-01-24T12:44:33.692Z,7.30
2019-01-24T12:47:02.353Z,7.30
2019-01-24T12:49:50.277Z,7.30
2019-01-24T12:52:38.224Z,7.30
2019-01-24T12:55:07.308Z,7.40
2019-01-24T12:57:36.162Z,7.30
2019-01-24T13:00:25.073Z,7.30
2019-01-24T13:03:13.023Z,7.30
2019-01-24T13:05:41.635Z,7.40
2019-01-24T13:08:10.497Z,7.40
2019-01-24T13:10:58.937Z,7.40
2019-01-24T13:13:27.565Z,7.40
2019-01-24T13:15:56.435Z,7.40
2019-01-24T13:18:25.096Z,7.40
2019-01-24T13:20:53.733Z,7.30
2019-01-24T13:23:41.649Z,7.30
2019-01-24T13:26:10.509Z,7.30
2019-01-24T13:28:58.437Z,7.30
2019-01-24T13:31:27.042Z,7.30
2019-01-24T13:34:14.961Z,7.30
2019-01-24T13:37:02.897Z,7.30
2019-01-24T13:39:51.049Z,7.40
2019-01-24T13:42:19.929Z,7.40
2019-01-24T13:44:48.776Z,7.40
2019-01-24T13:47:36.785Z,7.40
2019-01-24T13:50:25.000Z,7.40
2019-01-24T13:52:53.647Z,7.40
2019-01-24T13:55:41.574Z,7.30
2019-01-24T13:58:10.217Z,7.40
2019-01-24T14:00:40.396Z,7.40
2019-01-24T14:03:30.786Z,7.40
2019-01-24T14:06:18.775Z,7.50
2019-01-24T14:09:08.270Z,7.50
2019-01-24T14:11:56.165Z,7.40
2019-01-24T14:14:44.117Z,7.40
2019-01-24T14:17:25.134Z,7.30
2019-01-24T14:20:06.469Z,7.50
2019-01-24T14:22:35.528Z,6.50
2019-01-24T14:25:23.746Z,6.00
2019-01-24T14:28:11.908Z,6.30
2019-01-24T14:30:59.850Z,6.60
2019-01-24T14:33:48.022Z,6.40
2019-01-24T14:36:35.972Z,6.40
2019-01-24T14:39:23.924Z,6.50
2019-01-24T14:42:11.876Z,6.50
2019-01-24T14:44:40.533Z,6.40
2019-01-24T14:47:28.509Z,6.30
2019-01-24T14:49:57.224Z,6.30
2019-01-24T14:52:25.808Z,6.30
2019-01-24T14:55:13.776Z,6.10
2019-01-24T14:57:42.406Z,6.00
2019-01-24T15:00:32.101Z,6.00
2019-01-24T15:03:00.980Z,5.90
2019-01-24T15:05:29.623Z,5.90
2019-01-24T15:07:58.282Z,6.10
2019-01-24T15:10:46.358Z,6.10
2019-01-24T15:13:34.541Z,5.90
2019-01-24T15:16:03.163Z,6.00
2019-01-24T15:18:44.390Z,5.90
2019-01-24T15:21:24.843Z,5.80
2019-01-24T15:24:02.818Z,5.80
2019-01-24T15:26:31.492Z,5.90
2019-01-24T15:29:00.160Z,5.80
2019-01-24T15:31:28.757Z,5.80
2019-01-24T15:34:16.843Z,5.80
2019-01-24T15:37:04.837Z,5.70
2019-01-24T15:39:52.813Z,5.60
2019-01-24T15:42:40.782Z,5.70
2019-01-24T15:45:10.513Z,5.70
2019-01-24T15:47:39.149Z,5.70
2019-01-24T15:50:09.223Z,5.70
2019-01-24T15:52:38.123Z,5.60
2019-01-24T15:55:06.832Z,5.60
2019-01-24T15:57:35.456Z,5.50
2019-01-24T16:00:05.792Z,5.50
2019-01-24T16:02:34.397Z,5.50
2019-01-24T16:05:03.002Z,5.50
2019-01-24T16:07:53.145Z,5.50
2019-01-24T16:10:22.361Z,5.40
2019-01-24T16:12:51.000Z,5.40
2019-01-24T16:15:22.236Z,5.50
2019-01-24T16:17:51.155Z,5.50
2019-01-24T16:20:21.044Z,5.40
2019-01-24T16:23:09.241Z,5.00
2019-01-24T16:25:38.246Z,5.10
2019-01-24T16:28:06.856Z,5.10
2019-01-24T16:30:36.146Z,4.90
2019-01-24T16:33:24.333Z,5.20
2019-01-24T16:35:52.999Z,5.40
2019-01-24T16:38:21.638Z,5.10
2019-01-24T16:40:50.459Z,4.70
2019-01-24T16:43:19.162Z,4.80
2019-01-24T16:45:48.293Z,5.00
2019-01-24T16:48:16.920Z,5.00
2019-01-24T16:51:05.090Z,5.20
2019-01-24T16:53:33.760Z,5.30
2019-01-24T16:56:02.580Z,5.10
2019-01-24T16:58:31.499Z,4.70
2019-01-24T17:01:04.780Z,5.00
2019-01-24T17:03:33.384Z,4.90
2019-01-24T17:06:01.983Z,4.80
2019-01-24T17:08:30.593Z,4.80
2019-01-24T17:10:59.220Z,4.50
2019-01-24T17:13:47.168Z,4.20
2019-01-24T17:16:35.406Z,4.20
2019-01-24T17:19:04.117Z,3.90
2019-01-24T17:21:52.575Z,3.60
2019-01-24T17:24:21.249Z,3.10
2019-01-24T17:26:50.105Z,3.00
2019-01-24T17:29:18.724Z,3.20
2019-01-24T17:31:47.364Z,3.70
2019-01-24T17:34:15.969Z,3.60
2019-01-24T17:36:43.851Z,3.50
2019-01-24T17:39:31.882Z,3.30
2019-01-24T17:42:00.539Z,3.90
2019-01-24T17:44:33.696Z,4.40
2019-01-24T17:47:01.399Z,4.70
2019-01-24T17:49:30.308Z,4.90
2019-01-24T17:52:18.272Z,5.00
2019-01-24T17:55:07.941Z,5.20
2019-01-24T17:57:36.656Z,4.50
2019-01-24T18:00:26.777Z,4.40
2019-01-24T18:02:55.388Z,4.20
2019-01-24T18:05:24.100Z,3.90
2019-01-24T18:07:52.831Z,4.20
2019-01-24T18:10:23.231Z,4.50
2019-01-24T18:12:51.833Z,4.40
2019-01-24T18:15:40.046Z,4.10
2019-01-24T18:18:10.793Z,4.10
2019-01-24T18:20:39.515Z,4.50
2019-01-24T18:23:08.239Z,4.50
2019-01-24T18:25:37.309Z,4.40
2019-01-24T18:28:07.638Z,4.50
2019-01-24T18:30:36.451Z,4.30
2019-01-24T18:33:05.624Z,4.40
2019-01-24T18:35:34.497Z,4.60
2019-01-24T18:38:03.334Z,4.50
2019-01-24T18:40:51.614Z,3.60
2019-01-24T18:43:39.897Z,3.20
2019-01-24T18:46:28.347Z,3.90
2019-01-24T18:48:57.285Z,4.40
2019-01-24T18:51:45.357Z,4.50
2019-01-24T18:54:14.307Z,4.40
2019-01-24T18:56:43.293Z,4.40
2019-01-24T18:59:12.072Z,4.60
2019-01-24T19:01:40.724Z,4.70
2019-01-24T19:04:09.684Z,4.80
2019-01-24T19:06:38.622Z,4.00
2019-01-24T19:09:08.989Z,3.60
2019-01-24T19:11:37.738Z,3.10
2019-01-24T19:14:06.622Z,3.40
2019-01-24T19:16:56.182Z,3.90
2019-01-24T19:19:24.910Z,4.20
2019-01-24T19:21:53.925Z,4.30
2019-01-24T19:24:23.378Z,4.50
2019-01-24T19:26:52.114Z,4.60
2019-01-24T19:29:21.103Z,4.50
2019-01-24T19:31:49.799Z,4.60
2019-01-24T19:34:19.282Z,4.80
2019-01-24T19:36:48.265Z,4.80
2019-01-24T19:39:16.977Z,4.60
2019-01-24T19:41:45.684Z,4.60
2019-01-24T19:44:15.858Z,4.60
2019-01-24T19:46:46.224Z,4.50
2019-01-24T19:49:15.192Z,4.10
2019-01-24T19:51:45.505Z,4.30
2019-01-24T19:54:14.268Z,4.60
2019-01-24T19:56:43.318Z,4.80
2019-01-24T19:59:12.266Z,4.80
2019-01-24T20:01:40.999Z,4.10
2019-01-24T20:04:09.800Z,4.30
2019-01-24T20:06:38.515Z,4.20
2019-01-24T20:09:08.020Z,4.50
2019-01-24T20:11:36.811Z,4.70
2019-01-24T20:14:05.629Z,4.80
2019-01-24T20:16:34.414Z,4.40
2019-01-24T20:19:03.137Z,4.20
2019-01-24T20:21:32.001Z,4.50
2019-01-24T20:24:00.856Z,4.70
2019-01-24T20:26:29.577Z,4.80
2019-01-24T20:28:58.448Z,4.80
2019-01-24T20:31:27.354Z,4.90
2019-01-24T20:33:56.187Z,4.70
2019-01-24T20:36:24.883Z,4.30
2019-01-24T20:38:53.905Z,4.60
2019-01-24T20:41:22.937Z,4.70
2019-01-24T20:43:51.864Z,4.80
2019-01-24T20:46:20.606Z,4.90
2019-01-24T20:48:49.425Z,4.40
2019-01-24T20:51:18.202Z,4.00
2019-01-24T20:53:46.941Z,4.30
2019-01-24T20:56:15.802Z,4.80
2019-01-24T20:58:44.912Z,5.00
2019-01-24T21:01:13.660Z,4.00
2019-01-24T21:03:42.413Z,3.90
2019-01-24T21:06:11.290Z,4.30
2019-01-24T21:08:40.093Z,4.60
2019-01-24T21:11:08.858Z,4.70
2019-01-24T21:13:37.626Z,4.90
2019-01-24T21:16:06.293Z,4.90
2019-01-24T21:18:35.797Z,4.90
2019-01-24T21:21:04.488Z,4.80
2019-01-24T21:23:33.267Z,4.90
2019-01-24T21:26:02.002Z,4.90
2019-01-24T21:28:30.764Z,4.90
2019-01-24T21:30:59.541Z,4.90
2019-01-24T21:33:28.549Z,4.90
2019-01-24T21:35:57.361Z,4.90
2019-01-24T21:38:26.121Z,4.90
2019-01-24T21:40:54.926Z,4.80
2019-01-24T21:43:23.715Z,4.80
2019-01-24T21:45:52.685Z,4.90
2019-01-24T21:48:21.675Z,4.40
2019-01-24T21:50:50.621Z,4.60
2019-01-24T21:53:19.378Z,4.60
2019-01-24T21:55:48.089Z,4.70
2019-01-24T21:58:17.011Z,4.70
2019-01-24T22:00:45.746Z,4.80
2019-01-24T22:03:14.475Z,4.90
2019-01-24T22:05:43.256Z,4.80
2019-01-24T22:08:12.057Z,4.90
2019-01-24T22:10:40.851Z,4.90
2019-01-24T22:13:09.588Z,4.90
2019-01-24T22:15:38.421Z,4.90
2019-01-24T22:18:07.316Z,4.90
2019-01-24T22:20:36.028Z,4.90
2019-01-24T22:23:05.084Z,4.90
2019-01-24T22:25:34.916Z,4.80
2019-01-24T22:28:03.974Z,4.80
2019-01-24T22:30:41.013Z,4.80
2019-01-24T22:33:09.878Z,4.80
2019-01-24T22:35:38.549Z,4.80
2019-01-24T22:38:07.812Z,4.10
2019-01-24T22:40:37.500Z,4.20
2019-01-24T22:43:06.617Z,4.10
2019-01-24T22:45:36.150Z,4.30
2019-01-24T22:48:05.943Z,4.50
2019-01-24T22:50:34.684Z,4.00
2019-01-24T22:53:03.805Z,3.70
2019-01-24T22:55:32.781Z,4.00
2019-01-24T22:58:01.584Z,4.10
2019-01-24T23:01:10.608Z,4.00
2019-01-24T23:03:48.648Z,4.00
2019-01-24T23:06:17.267Z,3.90
2019-01-24T23:09:07.051Z,4.20
2019-01-24T23:11:55.243Z,4.30
2019-01-24T23:14:23.917Z,4.20
2019-01-24T23:17:11.866Z,4.10
2019-01-24T23:19:53.083Z,4.40
2019-01-24T23:22:21.692Z,4.30
2019-01-24T23:24:50.570Z,4.30
2019-01-24T23:27:38.853Z,3.70
2019-01-24T23:33:14.393Z,4.40
2019-01-24T23:35:43.070Z,3.70
2019-01-24T23:38:11.727Z,3.70
2019-01-24T23:40:59.933Z,4.10
2019-01-24T23:43:28.548Z,4.20
2019-01-24T23:45:57.536Z,3.40
2019-01-24T23:48:45.479Z,3.80
2019-01-24T23:51:26.677Z,3.90
2019-01-24T23:54:07.649Z,4.20
2019-01-24T23:56:36.256Z,4.40
